Time;durP1;ratioP1;P1;durP2;ratioP2;P2;SDS_P1;SDS_P2;PMS_P1;PMS_P2;Temp;Humidity;BMP_temperature;BMP_pressure;BME280_temperature;BME280_humidity;BME280_pressure;Samples;Min_cycle;Max_cycle;Signal;HPM_P1;HPM_P2
2023/05/10 00:01:31;;;;;;;12.98;10.15;;;11.70;99.90;;;;;;5019844;28;20042;-76
2023/05/10 00:03:59;;;;;;;15.75;10.30;;;11.60;99.90;;;;;;5021436;28;20052;-76
2023/05/10 00:06:27;;;;;;;13.77;9.38;;;11.50;99.90;;;;;;5020138;28;20091;-76
2023/05/10 00:08:56;;;;;;;12.07;8.93;;;11.40;99.90;;;;;;5002106;28;20046;-75
2023/05/10 00:11:23;;;;;;;14.13;9.30;;;11.30;99.90;;;;;;5021576;28;20042;-76
2023/05/10 00:13:51;;;;;;;15.82;9.23;;;11.30;99.90;;;;;;5020706;28;20041;-75
2023/05/10 00:16:18;;;;;;;11.82;8.77;;;11.20;99.90;;;;;;5019580;28;20057;-77
2023/05/10 00:18:46;;;;;;;11.25;7.70;;;11.10;99.90;;;;;;5019265;28;20498;-76
2023/05/10 00:21:13;;;;;;;10.88;7.70;;;11.10;99.90;;;;;;5018840;28;20041;-75
2023/05/10 00:23:41;;;;;;;11.85;8.25;;;11.10;99.90;;;;;;5021333;28;20442;-76
2023/05/10 00:26:09;;;;;;;12.60;8.57;;;11.10;99.90;;;;;;5020663;28;20045;-73
2023/05/10 00:28:38;;;;;;;12.18;7.38;;;11.00;99.90;;;;;;5002134;28;20086;-75
2023/05/10 00:31:06;;;;;;;10.35;7.78;;;11.00;99.90;;;;;;5027537;28;20067;-74
2023/05/10 00:33:33;;;;;;;11.35;6.95;;;10.90;99.90;;;;;;5000961;28;20409;-76
2023/05/10 00:36:00;;;;;;;10.27;7.35;;;10.80;99.90;;;;;;5019905;28;20120;-75
2023/05/10 00:38:28;;;;;;;12.13;8.15;;;10.90;99.90;;;;;;5018616;28;20133;-74
2023/05/10 00:40:56;;;;;;;12.10;8.13;;;10.80;99.90;;;;;;5002315;28;20100;-76
2023/05/10 00:43:31;;;;;;;15.50;8.20;;;10.80;99.90;;;;;;5003966;28;20292;-76
2023/05/10 00:45:59;;;;;;;13.93;8.82;;;10.80;99.90;;;;;;5017058;28;20046;-76
2023/05/10 00:48:26;;;;;;;10.98;7.75;;;10.80;99.90;;;;;;5002596;28;20072;-77
2023/05/10 00:50:54;;;;;;;14.05;7.78;;;10.70;99.90;;;;;;5005884;28;20132;-76
2023/05/10 00:53:21;;;;;;;9.32;6.68;;;10.70;99.90;;;;;;5026772;28;20128;-78
2023/05/10 00:55:49;;;;;;;10.45;6.85;;;10.60;99.90;;;;;;5003399;28;20108;-74
2023/05/10 00:58:17;;;;;;;8.52;6.53;;;10.60;99.90;;;;;;5001989;28;20103;-76
2023/05/10 01:00:48;;;;;;;10.73;7.10;;;10.60;99.90;;;;;;5018766;28;20034;-76
2023/05/10 01:03:15;;;;;;;13.82;6.93;;;10.60;99.90;;;;;;5019143;28;20405;-76
2023/05/10 01:05:43;;;;;;;10.10;6.32;;;10.60;99.90;;;;;;5019050;28;20483;-76
2023/05/10 01:08:10;;;;;;;8.43;6.35;;;10.60;99.90;;;;;;5001604;28;20053;-74
2023/05/10 01:10:38;;;;;;;10.48;7.30;;;10.60;99.90;;;;;;5002165;28;20137;-76
2023/05/10 01:13:06;;;;;;;9.88;6.47;;;10.50;99.90;;;;;;5018011;28;20048;-76
2023/05/10 01:15:33;;;;;;;7.93;5.75;;;10.40;99.90;;;;;;5018310;28;20072;-77
2023/05/10 01:18:02;;;;;;;8.60;5.85;;;10.40;99.90;;;;;;5019407;28;20049;-76
2023/05/10 01:20:37;;;;;;;7.57;5.80;;;10.30;99.90;;;;;;5020032;28;20045;-77
2023/05/10 01:23:46;;;;;;;9.10;5.68;;;10.20;99.90;;;;;;5002195;28;20045;-76
2023/05/10 01:26:49;;;;;;;7.60;5.65;;;10.30;99.90;;;;;;5008514;28;20048;-76
2023/05/10 01:29:55;;;;;;;10.05;6.30;;;10.20;99.90;;;;;;5002994;28;20521;-75
2023/05/10 01:32:32;;;;;;;9.77;6.60;;;10.20;99.90;;;;;;4979735;28;20046;-78
2023/05/10 01:35:04;;;;;;;9.00;5.43;;;10.20;99.90;;;;;;4996731;28;20128;-76
2023/05/10 01:37:41;;;;;;;6.40;5.38;;;10.20;99.90;;;;;;4980535;28;20084;-76
2023/05/10 01:40:18;;;;;;;10.65;5.97;;;10.20;99.90;;;;;;4978814;28;20053;-75
2023/05/10 01:42:51;;;;;;;11.10;6.82;;;10.10;99.90;;;;;;4996951;28;20034;-76
2023/05/10 01:45:26;;;;;;;10.50;6.35;;;10.10;99.90;;;;;;4979260;28;20038;-76
2023/05/10 01:48:05;;;;;;;8.73;6.55;;;10.10;99.90;;;;;;5013088;28;20075;-75
2023/05/10 01:50:35;;;;;;;9.13;5.95;;;10.10;99.90;;;;;;5025120;28;20041;-75
2023/05/10 01:53:05;;;;;;;8.25;5.68;;;10.00;99.90;;;;;;5018256;28;20095;-76
2023/05/10 01:55:36;;;;;;;8.02;5.70;;;9.90;99.90;;;;;;5000039;28;20737;-76
2023/05/10 01:58:08;;;;;;;8.40;5.72;;;9.90;99.90;;;;;;5018370;28;20045;-76
2023/05/10 02:00:40;;;;;;;8.60;5.35;;;9.80;99.90;;;;;;5025678;28;20037;-75
2023/05/10 02:03:11;;;;;;;9.23;5.28;;;9.80;99.90;;;;;;5015763;28;20549;-75
2023/05/10 02:05:39;;;;;;;7.55;5.25;;;9.70;99.90;;;;;;5017734;28;20113;-75
2023/05/10 02:08:08;;;;;;;6.93;5.20;;;9.80;99.90;;;;;;4999141;28;20056;-77
2023/05/10 02:10:38;;;;;;;7.78;5.82;;;9.80;99.90;;;;;;5018847;28;20072;-75
2023/05/10 02:13:08;;;;;;;7.82;4.82;;;9.80;99.90;;;;;;5000627;28;20053;-75
2023/05/10 02:15:37;;;;;;;7.03;4.72;;;9.70;99.90;;;;;;5002092;28;20092;-76
2023/05/10 02:18:07;;;;;;;8.88;5.57;;;9.70;99.90;;;;;;5000388;28;20038;-74
2023/05/10 02:20:37;;;;;;;8.85;5.38;;;9.80;99.90;;;;;;5020908;28;20100;-76
2023/05/10 02:23:05;;;;;;;8.98;5.30;;;9.80;99.90;;;;;;5002100;28;20046;-76
2023/05/10 02:25:33;;;;;;;7.63;4.95;;;9.80;99.90;;;;;;5000017;28;20050;-76
2023/05/10 02:28:04;;;;;;;7.82;5.55;;;9.80;99.90;;;;;;5019124;28;20061;-76
2023/05/10 02:30:33;;;;;;;8.07;5.57;;;9.80;99.90;;;;;;5000559;28;20091;-77
2023/05/10 02:33:01;;;;;;;7.68;5.40;;;9.80;99.90;;;;;;4998865;28;20128;-75
2023/05/10 02:35:30;;;;;;;7.78;5.97;;;9.80;99.90;;;;;;5001092;28;20052;-76
2023/05/10 02:37:59;;;;;;;9.75;5.30;;;9.80;99.90;;;;;;4999205;28;20421;-76
2023/05/10 02:40:28;;;;;;;7.68;5.25;;;9.70;99.90;;;;;;4999120;28;20045;-76
2023/05/10 02:42:58;;;;;;;8.80;5.40;;;9.70;99.90;;;;;;4999953;28;20436;-76
2023/05/10 02:45:30;;;;;;;8.95;5.85;;;9.70;99.90;;;;;;5017172;28;20049;-76
2023/05/10 02:47:58;;;;;;;8.57;6.15;;;9.60;99.90;;;;;;5040557;28;20036;-76
2023/05/10 02:50:28;;;;;;;8.60;5.05;;;9.70;99.90;;;;;;5040559;28;20065;-76
2023/05/10 02:53:01;;;;;;;7.55;5.32;;;9.60;99.90;;;;;;5019792;28;20508;-76
2023/05/10 02:55:36;;;;;;;8.63;5.13;;;9.50;99.90;;;;;;4997313;28;20046;-75
2023/05/10 02:58:11;;;;;;;7.45;5.43;;;9.40;99.90;;;;;;5004063;28;20142;-76
2023/05/10 03:00:38;;;;;;;7.85;5.25;;;9.40;99.90;;;;;;5015409;28;20040;-76
2023/05/10 03:03:06;;;;;;;11.52;5.75;;;9.30;99.90;;;;;;4993191;28;20132;-76
2023/05/10 03:05:34;;;;;;;10.10;6.25;;;9.40;99.90;;;;;;5000148;28;20702;-77
2023/05/10 03:08:06;;;;;;;9.00;5.95;;;9.30;99.90;;;;;;4999930;28;20107;-77
2023/05/10 03:10:34;;;;;;;8.88;4.93;;;9.30;99.90;;;;;;4999138;28;20042;-75
2023/05/10 03:13:17;;;;;;;10.52;5.20;;;9.30;99.90;;;;;;4999689;28;20050;-76
2023/05/10 03:15:55;;;;;;;9.05;5.43;;;9.20;99.90;;;;;;4998027;28;20060;-76
2023/05/10 03:18:24;;;;;;;9.23;4.82;;;9.20;99.90;;;;;;5014865;28;20038;-77
2023/05/10 03:20:58;;;;;;;7.72;5.32;;;9.20;99.90;;;;;;4999357;28;20045;-75
2023/05/10 03:23:31;;;;;;;11.18;5.45;;;9.20;99.90;;;;;;4999334;28;20046;-76
2023/05/10 03:26:00;;;;;;;10.10;5.95;;;9.20;99.90;;;;;;5015855;28;20546;-75
2023/05/10 03:28:28;;;;;;;8.52;5.22;;;9.20;99.90;;;;;;4999665;28;20053;-75
2023/05/10 03:30:57;;;;;;;8.27;5.15;;;9.10;99.90;;;;;;5016357;28;20049;-76
2023/05/10 03:33:24;;;;;;;9.48;5.03;;;9.10;99.90;;;;;;4999152;28;20589;-75
2023/05/10 03:35:52;;;;;;;8.95;5.55;;;9.10;99.90;;;;;;5016173;28;20495;-75
2023/05/10 03:38:19;;;;;;;14.00;5.60;;;9.10;99.90;;;;;;4998714;28;20057;-76
2023/05/10 03:40:48;;;;;;;8.02;5.90;;;9.20;99.90;;;;;;5016566;28;20781;-75
2023/05/10 03:43:16;;;;;;;10.73;7.45;;;9.20;99.90;;;;;;4998444;28;20723;-76
2023/05/10 03:45:43;;;;;;;8.77;5.97;;;9.20;99.90;;;;;;4999155;28;20033;-76
2023/05/10 03:48:11;;;;;;;9.52;5.88;;;9.30;99.90;;;;;;4999696;28;20049;-76
2023/05/10 03:50:38;;;;;;;11.20;5.80;;;9.30;99.90;;;;;;5004357;28;20092;-76
2023/05/10 03:53:05;;;;;;;9.95;6.03;;;9.40;99.90;;;;;;5021613;28;20042;-76
2023/05/10 03:55:35;;;;;;;11.90;5.88;;;9.60;99.90;;;;;;5003939;28;20050;-74
2023/05/10 03:58:04;;;;;;;9.20;5.95;;;10.20;99.90;;;;;;5018590;28;20111;-77
2023/05/10 04:00:33;;;;;;;9.45;6.75;;;10.80;99.90;;;;;;5003086;28;20137;-77
2023/05/10 04:03:01;;;;;;;11.15;6.28;;;11.30;99.90;;;;;;5003526;28;20855;-76
2023/05/10 04:05:29;;;;;;;9.75;6.05;;;11.90;99.90;;;;;;5003605;28;20433;-75
2023/05/10 04:07:56;;;;;;;7.50;5.60;;;12.50;99.90;;;;;;5000648;28;20129;-74
2023/05/10 04:10:24;;;;;;;7.28;4.88;;;12.90;99.90;;;;;;5019759;28;20044;-75
2023/05/10 04:12:51;;;;;;;7.45;4.93;;;13.40;99.90;;;;;;5020693;28;20045;-76
2023/05/10 04:15:20;;;;;;;10.50;4.53;;;13.60;99.90;;;;;;5002001;28;20042;-75
2023/05/10 04:17:47;;;;;;;11.82;5.30;;;14.20;99.90;;;;;;5019090;28;20038;-78
2023/05/10 04:20:15;;;;;;;6.78;4.95;;;14.60;99.90;;;;;;5019124;28;20034;-74
2023/05/10 04:22:43;;;;;;;7.00;4.68;;;14.90;99.90;;;;;;5020226;28;20052;-75
2023/05/10 04:25:10;;;;;;;8.75;5.30;;;15.20;99.90;;;;;;5020760;28;20080;-75
2023/05/10 04:27:38;;;;;;;12.48;5.07;;;15.70;99.90;;;;;;5021136;28;20030;-76
2023/05/10 04:30:07;;;;;;;10.95;5.20;;;16.30;99.90;;;;;;5015771;28;20489;-75
2023/05/10 04:32:36;;;;;;;11.63;5.72;;;17.20;99.90;;;;;;5018999;28;20125;-77
2023/05/10 04:35:04;;;;;;;9.77;5.68;;;17.90;98.30;;;;;;5020899;28;20042;-75
2023/05/10 04:37:32;;;;;;;10.50;6.45;;;18.70;93.70;;;;;;5026007;28;20057;-74
2023/05/10 04:40:00;;;;;;;9.65;6.38;;;18.80;89.40;;;;;;5018583;28;20413;-76
2023/05/10 04:42:28;;;;;;;8.05;5.80;;;18.50;86.60;;;;;;5020140;28;20041;-76
2023/05/10 04:44:55;;;;;;;8.40;6.00;;;18.00;86.40;;;;;;5019332;28;20042;-76
2023/05/10 04:47:22;;;;;;;7.70;5.00;;;17.30;87.90;;;;;;5020628;28;20042;-77
2023/05/10 04:49:51;;;;;;;6.88;4.97;;;16.50;90.30;;;;;;5018842;28;20042;-75
2023/05/10 04:52:19;;;;;;;7.32;5.40;;;15.90;94.20;;;;;;5018027;28;20044;-76
2023/05/10 04:54:47;;;;;;;10.20;5.85;;;15.40;99.90;;;;;;5019339;28;20045;-76
2023/05/10 04:57:14;;;;;;;7.80;5.82;;;15.00;99.90;;;;;;5024031;28;20037;-76
2023/05/10 04:59:42;;;;;;;8.43;5.95;;;14.70;99.90;;;;;;5021549;28;20531;-75
2023/05/10 05:02:09;;;;;;;10.00;5.40;;;14.30;99.90;;;;;;5020236;28;20045;-76
2023/05/10 05:04:37;;;;;;;10.27;5.80;;;14.10;99.90;;;;;;5021125;28;20133;-77
2023/05/10 05:07:06;;;;;;;10.05;6.03;;;14.00;99.90;;;;;;5002500;28;20045;-76
2023/05/10 05:09:33;;;;;;;8.25;4.90;;;14.20;99.90;;;;;;5017837;28;20073;-76
2023/05/10 05:12:01;;;;;;;7.95;5.30;;;14.50;99.90;;;;;;5016712;28;20120;-76
2023/05/10 05:14:28;;;;;;;10.57;5.38;;;15.10;99.90;;;;;;5017600;28;20474;-77
2023/05/10 05:16:56;;;;;;;7.10;4.90;;;16.40;99.90;;;;;;5019257;28;20362;-77
2023/05/10 05:19:23;;;;;;;9.65;5.15;;;17.80;99.90;;;;;;5018075;28;20037;-76
2023/05/10 05:21:51;;;;;;;10.20;7.15;;;19.00;93.30;;;;;;5018750;28;20042;-76
2023/05/10 05:24:20;;;;;;;7.70;5.60;;;20.00;88.90;;;;;;5017161;28;20140;-74
2023/05/10 05:26:47;;;;;;;7.88;5.30;;;20.40;81.30;;;;;;5017172;28;20045;-76
2023/05/10 05:29:15;;;;;;;7.55;5.22;;;20.30;77.60;;;;;;5014764;28;20409;-75
2023/05/10 05:31:44;;;;;;;8.82;5.93;;;20.30;76.20;;;;;;5018141;28;20069;-76
2023/05/10 05:34:12;;;;;;;12.02;7.22;;;20.30;77.30;;;;;;5017094;28;20750;-76
2023/05/10 05:36:39;;;;;;;12.02;5.75;;;20.60;75.00;;;;;;5016975;28;20129;-77
2023/05/10 05:39:07;;;;;;;7.93;5.40;;;21.10;72.50;;;;;;5017650;28;20128;-77
2023/05/10 05:41:36;;;;;;;12.75;8.88;;;21.00;71.10;;;;;;5019886;28;20489;-76
2023/05/10 05:44:03;;;;;;;10.98;6.22;;;20.90;71.40;;;;;;5016894;28;20048;-76
2023/05/10 05:46:31;;;;;;;20.00;13.15;;;20.80;71.60;;;;;;5018022;28;20121;-76
2023/05/10 05:48:58;;;;;;;14.30;8.70;;;20.60;72.70;;;;;;5016079;28;20540;-76
2023/05/10 05:51:26;;;;;;;18.95;7.97;;;20.60;72.50;;;;;;5018278;28;20033;-76
2023/05/10 05:53:53;;;;;;;13.43;7.70;;;20.20;71.40;;;;;;5019093;28;20111;-75
2023/05/10 05:56:24;;;;;;;16.23;8.00;;;19.80;72.80;;;;;;5018314;28;20041;-76
2023/05/10 05:58:52;;;;;;;14.02;10.55;;;19.40;74.90;;;;;;5033928;28;20046;-75
2023/05/10 06:01:20;;;;;;;11.98;7.65;;;19.20;76.80;;;;;;5042553;28;20056;-76
2023/05/10 06:03:48;;;;;;;13.38;8.73;;;19.20;78.10;;;;;;5024632;28;20100;-75
2023/05/10 06:06:15;;;;;;;10.93;8.38;;;19.30;79.40;;;;;;5017800;28;20128;-76
2023/05/10 06:08:43;;;;;;;13.65;8.68;;;19.50;78.30;;;;;;5019782;28;20497;-76
2023/05/10 06:11:10;;;;;;;10.75;6.80;;;19.40;78.70;;;;;;5020680;28;20115;-76
2023/05/10 06:13:38;;;;;;;5.53;4.28;;;19.40;77.30;;;;;;5021538;28;20037;-76
2023/05/10 06:16:07;;;;;;;14.43;10.60;;;19.40;76.30;;;;;;5024044;28;20045;-75
2023/05/10 06:18:35;;;;;;;11.10;7.70;;;19.50;77.30;;;;;;5018984;28;20140;-75
2023/05/10 06:21:02;;;;;;;6.10;4.55;;;19.70;76.60;;;;;;5020630;28;20086;-75
2023/05/10 06:23:30;;;;;;;7.93;5.10;;;19.90;76.50;;;;;;5021262;28;20073;-77
2023/05/10 06:25:57;;;;;;;7.22;4.40;;;20.00;75.70;;;;;;5018789;28;20042;-76
2023/05/10 06:28:25;;;;;;;11.18;7.97;;;20.20;75.60;;;;;;5017616;28;20529;-75
2023/05/10 06:30:52;;;;;;;7.55;5.38;;;20.10;74.10;;;;;;5018741;28;20037;-76
2023/05/10 06:33:21;;;;;;;8.50;5.95;;;20.10;73.60;;;;;;5018273;28;20046;-75
2023/05/10 06:35:49;;;;;;;12.38;5.63;;;20.00;74.50;;;;;;5017337;28;20042;-75
2023/05/10 06:38:17;;;;;;;7.60;4.63;;;20.00;74.10;;;;;;5016292;28;20041;-75
2023/05/10 06:40:44;;;;;;;6.05;3.83;;;20.00;74.30;;;;;;5017295;28;20064;-76
2023/05/10 06:43:13;;;;;;;5.47;4.22;;;19.70;74.20;;;;;;5017295;28;20132;-76
2023/05/10 06:45:42;;;;;;;10.07;6.68;;;19.60;74.70;;;;;;5019742;28;20141;-76
2023/05/10 06:48:09;;;;;;;7.15;6.00;;;19.80;75.10;;;;;;5017622;28;20064;-75
2023/05/10 06:50:38;;;;;;;7.93;4.53;;;19.90;74.90;;;;;;5018299;28;20149;-76
2023/05/10 06:53:06;;;;;;;6.95;3.85;;;19.90;74.90;;;;;;5017996;28;20042;-76
2023/05/10 06:55:33;;;;;;;8.27;3.92;;;20.10;74.60;;;;;;4999210;28;20057;-75
2023/05/10 06:58:00;;;;;;;6.60;4.70;;;20.40;72.20;;;;;;5016397;28;20056;-76
2023/05/10 07:00:28;;;;;;;6.57;3.90;;;20.40;72.20;;;;;;5015045;28;20052;-76
2023/05/10 07:02:56;;;;;;;14.00;9.35;;;20.60;72.50;;;;;;5014691;28;20420;-76
2023/05/10 07:05:23;;;;;;;10.13;4.72;;;20.70;71.40;;;;;;5015618;28;20049;-75
2023/05/10 07:07:52;;;;;;;6.50;4.90;;;20.80;71.90;;;;;;5014280;28;20491;-76
2023/05/10 07:10:20;;;;;;;7.30;4.95;;;20.80;71.60;;;;;;5015379;28;20101;-75
2023/05/10 07:12:47;;;;;;;6.97;4.25;;;20.70;72.00;;;;;;5015900;28;20034;-76
2023/05/10 07:15:15;;;;;;;7.93;4.72;;;20.70;71.90;;;;;;5016652;28;20041;-75
2023/05/10 07:17:43;;;;;;;8.20;6.15;;;20.60;71.50;;;;;;5015392;28;20457;-75
2023/05/10 07:20:11;;;;;;;5.90;4.10;;;20.20;73.10;;;;;;5017625;28;20498;-75
2023/05/10 07:22:38;;;;;;;9.73;4.50;;;19.80;72.40;;;;;;5019242;28;20505;-76
2023/05/10 07:25:08;;;;;;;8.18;5.22;;;19.90;75.10;;;;;;5002296;28;20520;-74
2023/05/10 07:27:35;;;;;;;8.55;5.15;;;19.80;74.70;;;;;;5021236;28;20050;-76
2023/05/10 07:30:03;;;;;;;10.18;5.28;;;19.90;75.20;;;;;;5006395;28;20061;-77
2023/05/10 07:32:31;;;;;;;9.18;5.65;;;20.20;73.90;;;;;;5006079;28;20061;-77
2023/05/10 07:34:58;;;;;;;15.30;11.13;;;20.30;73.90;;;;;;5025565;28;20046;-76
2023/05/10 07:37:26;;;;;;;7.78;4.65;;;20.50;72.70;;;;;;5025393;28;20079;-76
2023/05/10 07:39:53;;;;;;;6.43;4.35;;;20.40;73.80;;;;;;5021557;28;20505;-76
2023/05/10 07:42:22;;;;;;;6.82;5.18;;;20.20;73.20;;;;;;5019247;28;20046;-75
2023/05/10 07:44:49;;;;;;;8.70;5.15;;;20.10;73.70;;;;;;5022445;28;20046;-76
2023/05/10 07:47:17;;;;;;;7.95;5.47;;;20.30;73.10;;;;;;5021534;28;20493;-76
2023/05/10 07:49:44;;;;;;;7.07;4.57;;;20.40;73.80;;;;;;5020098;28;20037;-76
2023/05/10 07:52:11;;;;;;;5.60;3.80;;;20.60;72.90;;;;;;5020624;28;20034;-76
2023/05/10 07:54:39;;;;;;;8.25;5.55;;;20.70;72.30;;;;;;5022066;28;20052;-76
2023/05/10 07:57:07;;;;;;;7.50;5.20;;;20.80;71.50;;;;;;5020051;28;20037;-77
2023/05/10 07:59:36;;;;;;;6.85;4.63;;;20.90;70.90;;;;;;5019516;28;20044;-76
2023/05/10 08:02:03;;;;;;;12.02;4.72;;;20.90;69.70;;;;;;5020362;28;20049;-76
2023/05/10 08:04:31;;;;;;;6.65;4.72;;;20.90;70.60;;;;;;5019891;28;20049;-75
2023/05/10 08:06:58;;;;;;;6.90;4.60;;;20.40;71.00;;;;;;5020131;28;20038;-75
2023/05/10 08:09:26;;;;;;;7.93;6.18;;;20.20;72.70;;;;;;5017859;28;20069;-76
2023/05/10 08:11:53;;;;;;;8.75;6.78;;;19.90;73.30;;;;;;5020303;28;20041;-75
2023/05/10 08:14:21;;;;;;;6.60;5.50;;;20.10;74.40;;;;;;5020265;28;20041;-75
2023/05/10 08:16:49;;;;;;;12.45;5.38;;;20.40;74.10;;;;;;5020985;28;20049;-75
2023/05/10 08:19:18;;;;;;;8.40;5.00;;;20.80;72.70;;;;;;5018658;28;20056;-75
2023/05/10 08:21:46;;;;;;;6.47;5.13;;;21.00;71.30;;;;;;5002796;28;20048;-77
2023/05/10 08:24:13;;;;;;;8.13;5.13;;;21.30;70.50;;;;;;5020306;28;20489;-76
2023/05/10 08:26:41;;;;;;;7.35;5.45;;;21.30;71.20;;;;;;5021422;28;20042;-76
2023/05/10 08:29:08;;;;;;;7.47;5.40;;;21.40;71.30;;;;;;5019155;28;20073;-75
2023/05/10 08:31:36;;;;;;;13.20;5.88;;;21.40;69.90;;;;;;5020359;28;20140;-77
2023/05/10 08:34:05;;;;;;;7.78;5.60;;;21.00;69.80;;;;;;5019350;28;20137;-75
2023/05/10 08:36:32;;;;;;;6.72;5.22;;;21.00;70.00;;;;;;5019721;28;20091;-76
2023/05/10 08:38:59;;;;;;;7.32;4.70;;;21.40;68.90;;;;;;5018275;28;20034;-75
2023/05/10 08:41:27;;;;;;;6.72;5.45;;;21.50;68.20;;;;;;5000947;28;20045;-75
2023/05/10 08:43:55;;;;;;;6.53;4.90;;;21.80;67.80;;;;;;5019777;28;20447;-76
2023/05/10 08:46:24;;;;;;;8.20;4.70;;;22.00;66.70;;;;;;5019922;28;20051;-78
2023/05/10 08:48:52;;;;;;;11.38;5.43;;;22.30;66.60;;;;;;5019713;28;20056;-76
2023/05/10 08:51:26;;;;;;;8.52;6.22;;;22.60;65.80;;;;;;5018546;28;20045;-76
2023/05/10 08:53:54;;;;;;;8.25;5.40;;;23.00;63.70;;;;;;5019268;28;20371;-76
2023/05/10 08:56:21;;;;;;;8.40;5.75;;;23.30;61.80;;;;;;5020107;28;20728;-76
2023/05/10 08:58:49;;;;;;;9.30;7.10;;;23.50;60.90;;;;;;5018102;28;20041;-77
2023/05/10 09:01:19;;;;;;;10.45;8.30;;;23.90;59.60;;;;;;5001612;28;20041;-77
2023/05/10 09:03:48;;;;;;;5.68;4.53;;;24.30;58.00;;;;;;5019846;28;20132;-76
2023/05/10 09:06:15;;;;;;;8.70;4.93;;;24.00;60.00;;;;;;5018708;28;20049;-75
2023/05/10 09:08:45;;;;;;;6.20;4.95;;;23.60;61.60;;;;;;5035066;28;20251;-76
2023/05/10 09:11:14;;;;;;;9.65;4.90;;;23.10;62.40;;;;;;5045540;28;20050;-75
2023/05/10 09:13:43;;;;;;;9.27;6.00;;;22.50;62.80;;;;;;5020888;28;20065;-75
2023/05/10 09:16:10;;;;;;;6.57;5.35;;;22.20;64.70;;;;;;5019460;28;20100;-76
2023/05/10 09:18:38;;;;;;;11.32;6.80;;;22.00;66.50;;;;;;5022092;28;20042;-75
2023/05/10 09:21:05;;;;;;;8.07;6.55;;;21.70;67.40;;;;;;5021716;28;20056;-76
2023/05/10 09:23:33;;;;;;;12.52;8.15;;;21.50;67.70;;;;;;5022153;28;20108;-76
2023/05/10 09:26:05;;;;;;;10.45;6.70;;;21.30;70.70;;;;;;5015183;28;20045;-74
2023/05/10 09:28:34;;;;;;;7.18;5.35;;;21.10;70.10;;;;;;5017776;28;20038;-77
2023/05/10 09:31:01;;;;;;;7.85;5.85;;;21.30;70.20;;;;;;5019248;28;20571;-76
2023/05/10 09:33:29;;;;;;;7.28;5.95;;;21.60;69.40;;;;;;4999564;28;20463;-75
2023/05/10 09:36:07;;;;;;;6.32;5.60;;;21.80;69.40;;;;;;5018319;28;20136;-75
2023/05/10 09:38:46;;;;;;;8.18;5.55;;;22.00;68.10;;;;;;5018114;28;20030;-75
2023/05/10 09:41:20;;;;;;;13.60;7.57;;;22.10;67.60;;;;;;5016536;28;20128;-77
2023/05/10 09:43:47;;;;;;;9.60;7.07;;;22.50;68.20;;;;;;5016155;28;20228;-76
2023/05/10 09:46:16;;;;;;;8.27;6.05;;;22.20;66.50;;;;;;5016911;28;20045;-76
2023/05/10 09:48:46;;;;;;;10.18;6.25;;;22.10;67.80;;;;;;5017027;28;20068;-76
2023/05/10 09:51:21;;;;;;;8.38;5.80;;;22.30;67.30;;;;;;5018639;28;20071;-75
2023/05/10 09:53:50;;;;;;;6.68;4.93;;;22.90;66.30;;;;;;5013786;28;20045;-76
2023/05/10 09:56:38;;;;;;;7.88;6.03;;;23.00;65.00;;;;;;4968804;28;20042;-76
2023/05/10 09:59:06;;;;;;;10.52;5.78;;;23.00;63.60;;;;;;4972319;28;20129;-76
2023/05/10 10:01:36;;;;;;;10.23;6.72;;;23.30;63.60;;;;;;4968441;28;20051;-75
2023/05/10 10:04:04;;;;;;;6.72;5.80;;;23.40;63.40;;;;;;4967925;28;20047;-76
2023/05/10 10:06:37;;;;;;;6.00;4.80;;;23.50;61.90;;;;;;4968859;28;20050;-77
2023/05/10 10:09:05;;;;;;;7.50;5.45;;;23.70;61.50;;;;;;4968591;28;20070;-78
2023/05/10 10:11:33;;;;;;;8.02;6.10;;;23.70;62.50;;;;;;4967096;28;20042;-75
2023/05/10 10:14:02;;;;;;;8.05;6.35;;;24.00;61.70;;;;;;4966405;28;20047;-76
2023/05/10 10:16:31;;;;;;;7.97;5.60;;;24.10;61.40;;;;;;4967061;28;20126;-77
2023/05/10 10:18:58;;;;;;;7.78;5.93;;;23.90;62.10;;;;;;4967483;28;20042;-77
2023/05/10 10:21:26;;;;;;;11.38;5.80;;;24.50;61.10;;;;;;4968823;28;20046;-77
2023/05/10 10:23:54;;;;;;;7.30;4.80;;;24.50;61.90;;;;;;4952880;28;20797;-77
2023/05/10 10:26:22;;;;;;;7.53;4.93;;;24.70;61.00;;;;;;4935969;29;20045;-77
2023/05/10 10:29:07;;;;;;;7.28;5.00;;;24.50;60.60;;;;;;4933685;28;20047;-75
2023/05/10 10:31:41;;;;;;;8.68;4.95;;;24.20;60.90;;;;;;4947203;28;20051;-76
2023/05/10 10:34:11;;;;;;;6.00;4.80;;;23.70;61.20;;;;;;4950108;28;20134;-75
2023/05/10 10:36:46;;;;;;;6.85;4.90;;;23.50;62.30;;;;;;4950070;28;20035;-77
2023/05/10 10:39:14;;;;;;;11.48;6.90;;;23.40;63.30;;;;;;4948244;28;20141;-77
2023/05/10 10:41:51;;;;;;;8.95;5.97;;;23.50;63.20;;;;;;4948942;28;20047;-76
2023/05/10 10:44:34;;;;;;;13.52;7.50;;;23.50;63.00;;;;;;4948606;28;20055;-77
2023/05/10 10:47:22;;;;;;;11.18;7.25;;;23.40;63.30;;;;;;4948939;28;20401;-74
2023/05/10 10:49:52;;;;;;;9.52;6.32;;;23.60;63.00;;;;;;4949636;28;20099;-77
2023/05/10 10:52:28;;;;;;;10.00;6.78;;;23.40;62.80;;;;;;4949121;28;20082;-77
2023/05/10 10:55:01;;;;;;;10.05;6.88;;;23.40;63.00;;;;;;4967908;28;20133;-77
2023/05/10 10:57:30;;;;;;;6.72;5.60;;;23.40;63.30;;;;;;4986994;28;20039;-75
2023/05/10 11:00:28;;;;;;;8.05;4.90;;;23.50;63.60;;;;;;4975597;28;20050;-76
2023/05/10 11:02:59;;;;;;;9.85;4.57;;;23.50;62.90;;;;;;4974297;28;20060;-77
2023/05/10 11:05:42;;;;;;;8.00;4.60;;;23.40;62.40;;;;;;4975261;28;20050;-77
2023/05/10 11:08:12;;;;;;;7.88;4.80;;;23.60;62.90;;;;;;4973872;28;20956;-76
2023/05/10 11:10:41;;;;;;;5.80;3.95;;;23.40;63.50;;;;;;4989437;28;20054;-77
2023/05/10 11:13:11;;;;;;;11.57;5.30;;;23.10;63.20;;;;;;4993735;28;20611;-76
2023/05/10 11:15:40;;;;;;;7.88;4.28;;;23.00;65.40;;;;;;4994747;28;20449;-75
2023/05/10 11:18:24;;;;;;;7.43;4.40;;;22.90;64.30;;;;;;4992131;28;20141;-77
2023/05/10 11:20:52;;;;;;;8.80;4.53;;;22.80;64.80;;;;;;4993165;28;20057;-75
2023/05/10 11:23:21;;;;;;;7.00;4.80;;;22.60;64.40;;;;;;4992685;28;20042;-75
2023/05/10 11:25:50;;;;;;;8.82;5.95;;;22.50;65.60;;;;;;4994704;28;20347;-77
2023/05/10 11:28:19;;;;;;;6.97;5.47;;;22.30;66.50;;;;;;4994425;28;20118;-76
2023/05/10 11:30:46;;;;;;;6.70;5.32;;;22.30;66.90;;;;;;4981464;28;20038;-76
2023/05/10 11:33:19;;;;;;;7.38;5.45;;;22.40;66.90;;;;;;5015759;28;20036;-77
2023/05/10 11:35:48;;;;;;;8.88;5.15;;;22.20;67.20;;;;;;5006013;28;20394;-77
2023/05/10 11:38:15;;;;;;;7.10;4.07;;;22.20;68.30;;;;;;4979258;28;20037;-79
2023/05/10 11:40:43;;;;;;;7.97;4.38;;;22.10;67.60;;;;;;5000534;28;20042;-77
2023/05/10 11:43:12;;;;;;;7.68;5.13;;;22.20;67.80;;;;;;4992316;28;20046;-76
2023/05/10 11:45:41;;;;;;;8.23;4.57;;;22.40;66.90;;;;;;4993408;28;20042;-76
2023/05/10 11:48:09;;;;;;;6.10;4.75;;;22.60;66.50;;;;;;4993543;28;20548;-77
2023/05/10 11:50:36;;;;;;;7.57;4.80;;;22.60;65.80;;;;;;4992633;28;20042;-78
2023/05/10 11:53:07;;;;;;;8.50;5.20;;;22.70;66.30;;;;;;4995393;28;20049;-77
2023/05/10 11:55:35;;;;;;;6.78;4.93;;;22.80;66.00;;;;;;4974970;28;20057;-76
2023/05/10 11:58:03;;;;;;;7.47;5.85;;;22.70;65.60;;;;;;4976766;28;20117;-78
2023/05/10 12:00:32;;;;;;;7.32;5.15;;;22.70;65.80;;;;;;4979746;28;20116;-78
2023/05/10 12:03:01;;;;;;;7.93;5.32;;;22.70;65.30;;;;;;5002133;28;20051;-79
2023/05/10 12:05:28;;;;;;;7.68;4.82;;;22.70;66.10;;;;;;4980619;28;20084;-77
2023/05/10 12:08:16;;;;;;;9.48;4.63;;;22.70;66.00;;;;;;4977601;28;20046;-76
2023/05/10 12:10:43;;;;;;;8.90;4.78;;;22.70;66.00;;;;;;4974475;28;20078;-77
2023/05/10 12:13:15;;;;;;;9.63;4.88;;;23.00;65.50;;;;;;4976340;28;20046;-77
2023/05/10 12:15:43;;;;;;;9.73;4.38;;;23.00;65.00;;;;;;4977933;28;20447;-77
2023/05/10 12:18:11;;;;;;;7.50;4.45;;;23.10;63.80;;;;;;4990499;28;20065;-77
2023/05/10 12:20:39;;;;;;;5.65;4.78;;;23.10;64.20;;;;;;5002338;28;20042;-79
2023/05/10 12:23:08;;;;;;;6.57;4.78;;;23.00;65.10;;;;;;4981040;28;20054;-76
2023/05/10 12:25:45;;;;;;;7.03;4.60;;;22.80;65.30;;;;;;4977156;28;20051;-77
2023/05/10 12:28:13;;;;;;;7.43;5.68;;;22.90;63.80;;;;;;4977231;28;20035;-78
2023/05/10 12:30:41;;;;;;;7.43;4.88;;;23.00;63.90;;;;;;4974821;28;20042;-77
2023/05/10 12:33:14;;;;;;;8.55;5.80;;;23.20;62.90;;;;;;4973076;28;20046;-74
2023/05/10 12:35:46;;;;;;;5.35;4.70;;;23.30;62.50;;;;;;4974075;28;20435;-76
2023/05/10 12:38:29;;;;;;;6.70;5.18;;;23.30;62.70;;;;;;4974753;28;20514;-83
2023/05/10 12:40:58;;;;;;;5.97;4.88;;;23.20;63.30;;;;;;4973968;28;20050;-80
2023/05/10 12:43:26;;;;;;;6.05;4.43;;;23.00;63.30;;;;;;4975434;28;20055;-77
2023/05/10 12:45:54;;;;;;;8.38;6.13;;;23.00;63.80;;;;;;4977197;28;20050;-79
2023/05/10 12:48:21;;;;;;;7.22;4.72;;;22.90;64.80;;;;;;4978753;28;20115;-79
2023/05/10 12:50:49;;;;;;;8.50;4.95;;;23.00;64.70;;;;;;4978359;28;20046;-76
2023/05/10 12:53:16;;;;;;;8.77;4.85;;;23.00;64.90;;;;;;4971448;28;20061;-77
2023/05/10 12:55:44;;;;;;;6.90;4.95;;;23.00;65.80;;;;;;4988654;28;20077;-75
2023/05/10 12:58:13;;;;;;;9.70;6.78;;;23.00;65.50;;;;;;4991531;28;20042;-77